createdAt,value
2019-02-17T00:00:36.281Z,7.90
2019-02-17T00:03:04.500Z,7.90
2019-02-17T00:05:32.804Z,8.00
2019-02-17T00:08:01.874Z,8.00
2019-02-17T00:10:30.570Z,8.00
2019-02-17T00:12:59.025Z,8.00
2019-02-17T00:15:27.490Z,7.90
2019-02-17T00:17:57.818Z,7.90
2019-02-17T00:20:26.528Z,7.80
2019-02-17T00:22:55.350Z,7.70
2019-02-17T00:25:23.578Z,7.80
2019-02-17T00:27:52.502Z,7.70
2019-02-17T00:30:21.178Z,7.60
2019-02-17T00:32:49.713Z,7.60
2019-02-17T00:35:17.952Z,7.50
2019-02-17T00:37:46.885Z,7.70
2019-02-17T00:40:15.114Z,7.70
2019-02-17T00:42:44.582Z,7.70
2019-02-17T00:45:15.299Z,7.60
2019-02-17T00:47:43.605Z,7.60
2019-02-17T00:50:12.554Z,7.70
2019-02-17T00:52:41.578Z,7.70
2019-02-17T00:55:11.602Z,7.60
2019-02-17T00:57:39.826Z,7.60
2019-02-17T01:00:11.319Z,7.60
2019-02-17T01:02:39.718Z,7.70
2019-02-17T01:05:07.963Z,7.60
2019-02-17T01:07:36.358Z,7.50
2019-02-17T01:10:06.490Z,7.50
2019-02-17T01:12:34.737Z,7.40
2019-02-17T01:15:03.231Z,7.30
2019-02-17T01:17:31.460Z,7.30
2019-02-17T01:20:00.889Z,7.20
2019-02-17T01:22:29.364Z,7.10
2019-02-17T01:24:57.579Z,7.10
2019-02-17T01:27:25.812Z,7.10
2019-02-17T01:29:54.326Z,7.10
2019-02-17T01:32:22.586Z,7.00
2019-02-17T01:34:50.830Z,7.10
2019-02-17T01:37:19.239Z,7.10
2019-02-17T01:39:54.462Z,7.00
2019-02-17T01:42:23.385Z,7.00
2019-02-17T01:44:51.617Z,7.00
2019-02-17T01:47:19.849Z,7.00
2019-02-17T01:49:50.873Z,7.00
2019-02-17T01:52:19.118Z,6.90
2019-02-17T01:54:47.335Z,6.80
2019-02-17T01:57:15.840Z,6.80
2019-02-17T01:59:44.170Z,6.80
2019-02-17T02:02:12.402Z,6.70
2019-02-17T02:04:40.861Z,6.70
2019-02-17T02:07:09.179Z,6.70
2019-02-17T02:09:37.494Z,6.60
2019-02-17T02:12:06.011Z,6.60
2019-02-17T02:14:34.245Z,6.50
2019-02-17T02:17:02.518Z,6.50
2019-02-17T02:19:31.031Z,6.50
2019-02-17T02:21:59.263Z,6.50
2019-02-17T02:24:27.500Z,6.50
2019-02-17T02:26:55.819Z,6.50
2019-02-17T02:29:24.064Z,6.50
2019-02-17T02:31:52.310Z,6.40
2019-02-17T02:34:21.615Z,6.40
2019-02-17T02:36:49.839Z,6.30
2019-02-17T02:39:18.151Z,6.30
2019-02-17T02:41:46.654Z,6.30
2019-02-17T02:44:14.921Z,6.30
2019-02-17T02:46:43.198Z,6.30
2019-02-17T02:49:11.689Z,6.30
2019-02-17T02:51:42.697Z,6.30
2019-02-17T02:54:10.955Z,6.30
2019-02-17T02:56:39.492Z,6.40
2019-02-17T02:59:07.737Z,6.40
2019-02-17T03:01:35.986Z,6.40
2019-02-17T03:04:23.980Z,6.30
2019-02-17T03:06:53.860Z,6.30
2019-02-17T03:09:22.097Z,6.30
2019-02-17T03:11:50.652Z,6.20
2019-02-17T03:14:18.985Z,6.30
2019-02-17T03:16:47.225Z,6.30
2019-02-17T03:19:17.286Z,6.30
2019-02-17T03:21:46.533Z,6.30
2019-02-17T03:24:14.778Z,6.30
2019-02-17T03:26:43.209Z,6.30
2019-02-17T03:29:11.765Z,6.30
2019-02-17T03:31:40.150Z,6.20
2019-02-17T03:34:08.629Z,6.40
2019-02-17T03:36:41.081Z,6.30
2019-02-17T03:39:09.498Z,6.30
2019-02-17T03:41:37.705Z,6.30
2019-02-17T03:44:05.952Z,6.30
2019-02-17T03:46:34.378Z,6.30
2019-02-17T03:49:02.800Z,6.30
2019-02-17T03:51:31.077Z,6.30
2019-02-17T03:53:59.494Z,6.30
2019-02-17T03:56:30.103Z,6.20
2019-02-17T03:58:58.338Z,6.20
2019-02-17T04:01:26.588Z,6.10
2019-02-17T04:03:55.118Z,6.10
2019-02-17T04:06:23.514Z,6.10
2019-02-17T04:08:51.742Z,6.10
2019-02-17T04:11:21.528Z,6.10
2019-02-17T04:13:49.783Z,6.10
2019-02-17T04:16:18.104Z,6.10
2019-02-17T04:18:47.403Z,6.00
2019-02-17T04:21:15.675Z,5.90
2019-02-17T04:23:43.904Z,5.90
2019-02-17T04:26:12.485Z,5.80
2019-02-17T04:28:40.738Z,5.70
2019-02-17T04:31:08.996Z,5.70
2019-02-17T04:33:37.458Z,5.70
2019-02-17T04:36:05.707Z,5.60
2019-02-17T04:38:33.946Z,5.60
2019-02-17T04:41:02.273Z,5.60
2019-02-17T04:43:30.533Z,5.60
2019-02-17T04:45:59.207Z,5.50
2019-02-17T04:48:27.622Z,5.40
2019-02-17T04:50:55.858Z,5.30
2019-02-17T04:53:26.035Z,5.30
2019-02-17T04:55:54.476Z,5.30
2019-02-17T04:58:22.730Z,5.30
2019-02-17T05:00:50.975Z,5.20
2019-02-17T05:03:19.368Z,5.30
2019-02-17T05:05:47.602Z,5.20
2019-02-17T05:08:15.832Z,5.20
2019-02-17T05:10:44.799Z,5.20
2019-02-17T05:13:13.027Z,5.30
2019-02-17T05:15:41.291Z,5.40
2019-02-17T05:18:10.307Z,5.40
2019-02-17T05:20:38.537Z,5.40
2019-02-17T05:23:06.774Z,5.50
2019-02-17T05:25:35.350Z,5.60
2019-02-17T05:28:03.988Z,5.70
2019-02-17T05:30:32.221Z,5.80
2019-02-17T05:33:01.294Z,5.70
2019-02-17T05:35:29.557Z,5.70
2019-02-17T05:37:57.994Z,5.70
2019-02-17T05:40:26.753Z,5.70
2019-02-17T05:42:54.974Z,5.70
2019-02-17T05:45:25.603Z,5.80
2019-02-17T05:47:53.823Z,5.90
2019-02-17T05:50:24.655Z,5.90
2019-02-17T05:52:52.917Z,5.90
2019-02-17T05:55:21.152Z,5.90
2019-02-17T05:57:49.449Z,6.00
2019-02-17T06:00:20.226Z,6.00
2019-02-17T06:02:48.465Z,6.00
2019-02-17T06:05:16.694Z,6.00
2019-02-17T06:07:45.362Z,6.00
2019-02-17T06:10:13.592Z,6.00
2019-02-17T06:12:41.824Z,6.00
2019-02-17T06:15:10.261Z,6.00
2019-02-17T06:17:39.303Z,6.00
2019-02-17T06:20:10.296Z,6.10
2019-02-17T06:22:38.670Z,6.00
2019-02-17T06:25:07.256Z,6.00
2019-02-17T06:27:35.673Z,6.00
2019-02-17T06:30:09.300Z,6.10
2019-02-17T06:32:37.706Z,6.10
2019-02-17T06:35:06.692Z,6.20
2019-02-17T06:37:36.976Z,6.20
2019-02-17T06:40:07.261Z,6.20
2019-02-17T06:42:35.509Z,6.10
2019-02-17T06:45:07.039Z,6.20
2019-02-17T06:47:35.821Z,6.10
2019-02-17T06:50:04.797Z,6.10
2019-02-17T06:52:33.241Z,6.00
2019-02-17T06:55:09.256Z,6.00
2019-02-17T06:57:39.990Z,6.00
2019-02-17T07:00:14.293Z,6.00
2019-02-17T07:02:44.429Z,6.00
2019-02-17T07:05:26.407Z,6.00
2019-02-17T07:07:55.661Z,6.00
2019-02-17T07:10:24.043Z,6.00
2019-02-17T07:12:52.402Z,6.00
2019-02-17T07:15:21.475Z,6.10
2019-02-17T07:17:50.782Z,6.10
2019-02-17T07:20:19.109Z,6.00
2019-02-17T07:22:48.260Z,6.00
2019-02-17T07:25:16.490Z,6.10
2019-02-17T07:27:44.841Z,6.00
2019-02-17T07:30:14.041Z,6.00
2019-02-17T07:32:42.439Z,6.10
2019-02-17T07:35:11.550Z,6.10
2019-02-17T07:37:41.833Z,6.30
2019-02-17T07:40:13.034Z,6.40
2019-02-17T07:42:42.206Z,6.40
2019-02-17T07:45:11.239Z,6.50
2019-02-17T07:47:39.577Z,6.40
2019-02-17T07:50:12.416Z,6.40
2019-02-17T07:52:40.653Z,6.40
2019-02-17T07:55:11.322Z,6.50
2019-02-17T07:57:40.431Z,6.70
2019-02-17T08:00:12.116Z,6.50
2019-02-17T08:02:40.457Z,6.60
2019-02-17T08:05:10.487Z,6.60
2019-02-17T08:07:38.828Z,6.90
2019-02-17T08:10:08.913Z,7.20
2019-02-17T08:12:42.592Z,7.30
2019-02-17T08:15:10.896Z,7.20
2019-02-17T08:17:39.105Z,7.30
2019-02-17T08:20:10.191Z,7.40
2019-02-17T08:22:40.371Z,7.30
2019-02-17T08:25:09.765Z,7.50
2019-02-17T08:27:38.504Z,7.70
2019-02-17T08:30:13.215Z,7.30
2019-02-17T08:32:44.042Z,7.60
2019-02-17T08:35:12.084Z,7.80
2019-02-17T08:37:40.934Z,7.70
2019-02-17T08:40:10.262Z,8.00
2019-02-17T08:42:39.002Z,7.70
2019-02-17T08:45:10.157Z,8.00
2019-02-17T08:47:38.457Z,8.20
2019-02-17T08:50:09.766Z,8.20
2019-02-17T08:52:38.090Z,8.20
2019-02-17T08:55:08.895Z,8.10
2019-02-17T08:57:38.049Z,8.20
2019-02-17T09:00:09.819Z,8.40
2019-02-17T09:02:40.653Z,8.40
2019-02-17T09:05:08.294Z,8.70
2019-02-17T09:07:37.955Z,8.90
2019-02-17T09:10:13.608Z,9.10
2019-02-17T09:12:41.981Z,8.90
2019-02-17T09:15:14.939Z,8.90
2019-02-17T09:17:43.204Z,8.70
2019-02-17T09:20:11.837Z,8.70
2019-02-17T09:22:43.418Z,8.70
2019-02-17T09:25:13.670Z,8.70
2019-02-17T09:27:43.739Z,8.90
2019-02-17T09:30:14.621Z,9.20
2019-02-17T09:32:42.848Z,9.30
2019-02-17T09:35:11.090Z,9.50
2019-02-17T09:37:41.446Z,9.90
2019-02-17T09:40:13.179Z,10.10
2019-02-17T09:42:41.437Z,10.20
2019-02-17T09:45:15.180Z,10.40
2019-02-17T09:47:43.430Z,10.80
2019-02-17T09:50:13.784Z,10.80
2019-02-17T09:52:42.779Z,10.80
2019-02-17T09:55:11.313Z,11.30
2019-02-17T09:57:40.245Z,11.40
2019-02-17T10:00:13.483Z,11.00
2019-02-17T10:02:41.718Z,11.30
2019-02-17T10:05:11.170Z,11.00
2019-02-17T10:07:40.333Z,11.30
2019-02-17T10:10:19.807Z,11.70
2019-02-17T10:12:49.480Z,11.80
2019-02-17T10:15:18.126Z,11.90
2019-02-17T10:17:46.380Z,12.20
2019-02-17T10:20:17.710Z,12.00
2019-02-17T10:22:45.991Z,12.50
2019-02-17T10:25:14.335Z,12.80
2019-02-17T10:27:42.872Z,12.90
2019-02-17T10:30:13.513Z,13.10
2019-02-17T10:32:41.801Z,12.80
2019-02-17T10:35:10.079Z,13.10
2019-02-17T10:37:38.538Z,13.10
2019-02-17T10:40:16.307Z,13.40
2019-02-17T10:42:45.006Z,13.30
2019-02-17T10:45:13.253Z,13.70
2019-02-17T10:47:43.124Z,14.40
2019-02-17T10:50:12.781Z,14.10
2019-02-17T10:52:41.036Z,14.40
2019-02-17T10:55:11.241Z,15.80
2019-02-17T10:57:39.758Z,15.60
2019-02-17T11:00:16.519Z,15.10
2019-02-17T11:02:47.706Z,16.00
2019-02-17T11:05:17.105Z,15.60
2019-02-17T11:07:48.142Z,15.60
2019-02-17T11:10:16.445Z,15.30
2019-02-17T11:12:44.706Z,15.20
2019-02-17T11:15:16.871Z,14.60
2019-02-17T11:17:45.157Z,15.10
2019-02-17T11:20:13.414Z,15.30
2019-02-17T11:22:44.465Z,15.30
2019-02-17T11:25:12.696Z,15.10
2019-02-17T11:27:40.969Z,15.30
2019-02-17T11:30:15.438Z,15.50
2019-02-17T11:32:43.700Z,15.60
2019-02-17T11:35:11.953Z,15.60
2019-02-17T11:37:40.481Z,15.50
2019-02-17T11:40:10.562Z,15.50
2019-02-17T11:42:38.818Z,15.30
2019-02-17T11:45:10.822Z,15.80
2019-02-17T11:47:39.069Z,16.10
2019-02-17T11:50:08.677Z,16.40
2019-02-17T11:52:37.121Z,17.10
2019-02-17T11:55:10.839Z,17.40
2019-02-17T11:57:39.332Z,16.00
2019-02-17T12:00:19.733Z,15.90
2019-02-17T12:02:48.363Z,16.00
2019-02-17T12:05:16.659Z,16.00
2019-02-17T12:07:45.878Z,16.30
2019-02-17T12:10:14.350Z,16.60
2019-02-17T12:12:42.683Z,16.50
2019-02-17T12:15:12.585Z,16.50
2019-02-17T12:17:44.375Z,17.30
2019-02-17T12:20:38.667Z,17.10
2019-02-17T12:23:11.253Z,16.60
2019-02-17T12:25:47.065Z,17.10
2019-02-17T12:28:17.118Z,17.20
2019-02-17T12:30:47.022Z,17.40
2019-02-17T12:33:21.651Z,18.00
2019-02-17T12:35:48.771Z,18.40
2019-02-17T12:38:17.075Z,18.50
2019-02-17T12:40:45.596Z,18.30
2019-02-17T12:43:13.876Z,19.00
2019-02-17T12:45:47.783Z,19.60
2019-02-17T12:48:17.628Z,19.10
2019-02-17T12:50:47.961Z,18.90
2019-02-17T12:53:16.307Z,19.20
2019-02-17T12:55:44.558Z,19.00
2019-02-17T12:58:13.095Z,18.70
2019-02-17T13:00:41.368Z,18.50
2019-02-17T13:03:09.702Z,17.80
2019-02-17T13:05:38.602Z,17.40
2019-02-17T13:08:08.525Z,18.00
2019-02-17T13:10:39.292Z,18.40
2019-02-17T13:13:07.764Z,17.60
2019-02-17T13:15:36.041Z,17.80
2019-02-17T13:18:05.135Z,17.80
2019-02-17T13:20:33.381Z,17.80
2019-02-17T13:23:05.751Z,17.70
2019-02-17T13:25:33.969Z,17.90
2019-02-17T13:28:03.039Z,18.00
2019-02-17T13:30:33.284Z,17.80
2019-02-17T13:33:02.317Z,18.00
2019-02-17T13:35:30.566Z,17.70
2019-02-17T13:37:59.046Z,17.50
2019-02-17T13:40:27.483Z,17.70
2019-02-17T13:42:55.734Z,17.40
2019-02-17T13:45:25.074Z,17.40
2019-02-17T13:47:53.330Z,17.70
2019-02-17T13:50:22.487Z,17.60
2019-02-17T13:52:50.738Z,18.10
2019-02-17T13:55:19.945Z,18.00
2019-02-17T13:57:52.442Z,17.90
2019-02-17T14:00:21.528Z,17.30
2019-02-17T14:02:49.753Z,16.90
2019-02-17T14:05:18.670Z,16.90
2019-02-17T14:07:47.603Z,16.80
2019-02-17T14:10:16.004Z,16.80
2019-02-17T14:12:44.949Z,16.80
2019-02-17T14:15:16.369Z,16.90
2019-02-17T14:17:45.330Z,16.90
2019-02-17T14:20:13.562Z,17.00
2019-02-17T14:22:42.361Z,17.00
2019-02-17T14:25:11.372Z,17.00
2019-02-17T14:27:39.757Z,17.00
2019-02-17T14:30:16.214Z,17.10
2019-02-17T14:32:44.532Z,17.10
2019-02-17T14:35:12.758Z,17.10
2019-02-17T14:37:41.690Z,17.10
2019-02-17T14:40:11.948Z,17.00
2019-02-17T14:42:40.975Z,17.00
2019-02-17T14:45:17.310Z,17.00
2019-02-17T14:47:46.994Z,17.10
2019-02-17T14:50:15.282Z,17.10
2019-02-17T14:52:44.149Z,17.10
2019-02-17T14:55:12.835Z,17.10
2019-02-17T14:57:43.191Z,17.10
2019-02-17T15:00:15.507Z,17.20
2019-02-17T15:02:44.595Z,17.10
2019-02-17T15:05:15.694Z,17.20
2019-02-17T15:07:43.929Z,17.20
2019-02-17T15:10:20.132Z,17.20
2019-02-17T15:12:49.471Z,17.20
2019-02-17T15:15:17.918Z,17.20
2019-02-17T15:17:47.170Z,17.20
2019-02-17T15:20:24.976Z,17.20
2019-02-17T15:22:55.373Z,17.30
2019-02-17T15:25:23.620Z,17.20
2019-02-17T15:27:53.930Z,17.20
2019-02-17T15:30:22.454Z,17.20
2019-02-17T15:33:03.309Z,17.20
2019-02-17T15:35:24.149Z,17.20
2019-02-17T15:37:55.825Z,17.20
2019-02-17T15:40:26.667Z,17.20
2019-02-17T15:42:56.540Z,17.20
2019-02-17T15:45:25.550Z,17.20
2019-02-17T15:47:55.808Z,17.10
2019-02-17T15:50:24.186Z,17.10
2019-02-17T15:52:54.163Z,17.10
2019-02-17T15:55:22.411Z,17.10
2019-02-17T15:57:51.874Z,17.00
2019-02-17T16:00:20.920Z,16.90
2019-02-17T16:02:49.298Z,16.90
2019-02-17T16:05:18.294Z,16.90
2019-02-17T16:07:47.019Z,16.80
2019-02-17T16:10:16.910Z,16.80
2019-02-17T16:12:45.884Z,16.80
2019-02-17T16:15:21.371Z,16.70
2019-02-17T16:17:50.718Z,16.60
2019-02-17T16:20:21.696Z,16.50
2019-02-17T16:22:51.226Z,16.50
2019-02-17T16:25:19.490Z,16.40
2019-02-17T16:27:48.001Z,16.30
2019-02-17T16:30:19.251Z,16.30
2019-02-17T16:32:47.589Z,16.20
2019-02-17T16:35:17.465Z,16.20
2019-02-17T16:37:46.713Z,16.10
2019-02-17T16:40:16.405Z,15.90
2019-02-17T16:42:44.645Z,15.80
2019-02-17T16:45:14.870Z,15.70
2019-02-17T16:47:45.502Z,15.70
2019-02-17T16:50:26.633Z,15.50
2019-02-17T16:52:56.239Z,15.40
2019-02-17T16:55:26.271Z,15.30
2019-02-17T16:57:54.896Z,15.30
2019-02-17T17:00:23.749Z,15.30
2019-02-17T17:02:54.161Z,15.30
2019-02-17T17:05:29.636Z,15.20
2019-02-17T17:08:00.344Z,15.10
2019-02-17T17:10:28.578Z,15.00
2019-02-17T17:12:56.873Z,15.00
2019-02-17T17:15:25.270Z,15.00
2019-02-17T17:17:53.778Z,14.90
2019-02-17T17:20:22.693Z,14.80
2019-02-17T17:22:51.238Z,14.80
2019-02-17T17:25:19.526Z,14.70
2019-02-17T17:27:48.815Z,14.70
2019-02-17T17:30:19.273Z,14.60
2019-02-17T17:32:48.029Z,14.60
2019-02-17T17:35:17.418Z,14.60
2019-02-17T17:37:46.136Z,14.40
2019-02-17T17:40:16.741Z,14.40
2019-02-17T17:42:46.787Z,14.30
2019-02-17T17:45:22.943Z,14.30
2019-02-17T17:47:52.071Z,14.20
2019-02-17T17:50:22.393Z,14.10
2019-02-17T17:52:51.040Z,14.10
2019-02-17T17:55:19.384Z,14.00
2019-02-17T17:57:47.612Z,14.00
2019-02-17T18:00:21.526Z,14.00
2019-02-17T18:02:49.866Z,13.90
2019-02-17T18:05:18.157Z,13.90
2019-02-17T18:07:46.747Z,13.80
2019-02-17T18:10:18.450Z,13.80
2019-02-17T18:12:46.668Z,13.80
2019-02-17T18:15:19.370Z,13.70
2019-02-17T18:17:54.665Z,13.60
2019-02-17T18:20:17.689Z,13.60
2019-02-17T18:22:46.194Z,13.50
2019-02-17T18:25:16.570Z,13.40
2019-02-17T18:27:44.830Z,13.40
2019-02-17T18:30:16.542Z,13.30
2019-02-17T18:32:44.527Z,13.30
2019-02-17T18:35:19.885Z,13.30
2019-02-17T18:37:43.307Z,13.20
2019-02-17T18:40:16.462Z,13.20
2019-02-17T18:42:45.038Z,13.20
2019-02-17T18:45:14.670Z,13.10
2019-02-17T18:47:42.962Z,13.10
2019-02-17T18:50:16.010Z,13.00
2019-02-17T18:52:44.687Z,12.90
2019-02-17T18:55:13.616Z,12.90
2019-02-17T18:57:49.583Z,12.90
2019-02-17T19:00:18.522Z,12.80
2019-02-17T19:02:47.288Z,12.80
2019-02-17T19:05:15.652Z,12.70
2019-02-17T19:07:44.298Z,12.60
2019-02-17T19:10:13.633Z,12.50
2019-02-17T19:12:43.079Z,12.50
2019-02-17T19:15:17.594Z,12.40
2019-02-17T19:17:47.557Z,12.30
2019-02-17T19:20:36.822Z,12.30
2019-02-17T19:23:05.377Z,12.30
2019-02-17T19:25:34.224Z,12.20
2019-02-17T19:28:03.797Z,12.10
2019-02-17T19:30:34.053Z,12.10
2019-02-17T19:33:03.193Z,12.00
2019-02-17T19:35:39.439Z,12.00
2019-02-17T19:38:01.871Z,11.90
2019-02-17T19:40:32.537Z,11.80
2019-02-17T19:43:02.943Z,11.80
2019-02-17T19:45:30.952Z,11.60
2019-02-17T19:48:01.772Z,11.50
2019-02-17T19:50:30.091Z,11.60
2019-02-17T19:52:58.328Z,11.50
2019-02-17T19:55:26.588Z,11.40
2019-02-17T19:57:54.996Z,11.50
2019-02-17T20:00:23.291Z,11.30
2019-02-17T20:02:59.515Z,11.20
2019-02-17T20:05:32.338Z,11.20
2019-02-17T20:08:00.802Z,11.20
2019-02-17T20:10:29.100Z,11.10
2019-02-17T20:12:57.568Z,11.00
2019-02-17T20:15:31.926Z,11.00
2019-02-17T20:18:01.418Z,11.00
2019-02-17T20:20:29.687Z,10.90
2019-02-17T20:23:00.194Z,10.90
2019-02-17T20:25:28.585Z,11.00
2019-02-17T20:27:56.853Z,11.00
2019-02-17T20:30:25.222Z,10.80
2019-02-17T20:32:53.847Z,10.80
2019-02-17T20:35:22.174Z,10.70
2019-02-17T20:37:50.513Z,10.70
2019-02-17T20:40:19.139Z,10.60
2019-02-17T20:42:47.704Z,10.60
2019-02-17T20:45:15.984Z,10.50
2019-02-17T20:47:44.592Z,10.50
2019-02-17T20:50:19.626Z,10.40
2019-02-17T20:52:48.176Z,10.40
2019-02-17T20:55:16.532Z,10.40
2019-02-17T20:57:44.867Z,10.30
2019-02-17T21:00:18.491Z,10.20
2019-02-17T21:02:46.800Z,10.20
2019-02-17T21:05:15.126Z,10.20
2019-02-17T21:07:43.580Z,10.20
2019-02-17T21:10:13.456Z,10.10
2019-02-17T21:12:41.734Z,10.10
2019-02-17T21:15:14.988Z,10.10
2019-02-17T21:17:43.279Z,10.00
2019-02-17T21:20:11.750Z,10.00
2019-02-17T21:22:40.209Z,9.90
2019-02-17T21:25:12.992Z,9.90
2019-02-17T21:27:41.699Z,9.90
2019-02-17T21:30:16.907Z,10.00
2019-02-17T21:32:45.770Z,10.00
2019-02-17T21:35:15.342Z,9.90
2019-02-17T21:37:43.631Z,10.00
2019-02-17T21:40:13.045Z,9.90
2019-02-17T21:42:41.340Z,9.90
2019-02-17T21:45:17.912Z,9.90
2019-02-17T21:47:47.148Z,9.90
2019-02-17T21:50:15.670Z,9.80
2019-02-17T21:52:44.833Z,9.80
2019-02-17T21:55:16.205Z,9.80
2019-02-17T21:57:44.519Z,9.70
2019-02-17T22:00:21.608Z,9.70
2019-02-17T22:02:49.914Z,9.70
2019-02-17T22:05:18.610Z,9.60
2019-02-17T22:07:48.219Z,9.60
2019-02-17T22:10:20.045Z,9.60
2019-02-17T22:12:50.920Z,9.60
2019-02-17T22:15:20.997Z,9.70
2019-02-17T22:17:49.249Z,9.60
2019-02-17T22:20:17.477Z,9.60
2019-02-17T22:22:45.880Z,9.60
2019-02-17T22:25:15.779Z,9.60
2019-02-17T22:27:44.014Z,9.60
2019-02-17T22:30:13.772Z,9.60
2019-02-17T22:32:42.041Z,9.60
2019-02-17T22:35:10.292Z,9.60
2019-02-17T22:37:38.765Z,9.50
2019-02-17T22:40:10.114Z,9.50
2019-02-17T22:42:38.382Z,9.60
2019-02-17T22:45:12.188Z,9.70
2019-02-17T22:47:40.505Z,9.60
2019-02-17T22:50:19.421Z,9.50
2019-02-17T22:52:47.815Z,9.50
2019-02-17T22:55:16.249Z,9.60
2019-02-17T22:57:45.438Z,9.50
2019-02-17T23:00:20.061Z,9.50
2019-02-17T23:02:49.778Z,9.50
2019-02-17T23:05:18.004Z,9.50
2019-02-17T23:07:46.749Z,9.50
2019-02-17T23:10:16.404Z,9.50
2019-02-17T23:12:44.814Z,9.50
2019-02-17T23:15:14.746Z,9.50
2019-02-17T23:17:44.421Z,9.40
2019-02-17T23:20:13.214Z,9.40
2019-02-17T23:25:34.463Z,9.40
2019-02-17T23:28:03.948Z,9.30
2019-02-17T23:30:32.356Z,9.30
2019-02-17T23:33:02.000Z,9.20
2019-02-17T23:35:30.719Z,9.20
2019-02-17T23:37:59.416Z,9.10
2019-02-17T23:40:27.663Z,9.10
2019-02-17T23:42:57.039Z,9.10
2019-02-17T23:45:25.448Z,9.10
2019-02-17T23:47:53.788Z,9.10
2019-02-17T23:50:22.890Z,9.10
2019-02-17T23:52:51.118Z,9.10
2019-02-17T23:55:19.373Z,9.10
2019-02-17T23:57:47.920Z,9.10
